Time;durP1;ratioP1;P1;durP2;ratioP2;P2;SDS_P1;SDS_P2;PMS_P1;PMS_P2;Temp;Humidity;BMP_temperature;BMP_pressure;BME280_temperature;BME280_humidity;BME280_pressure;Samples;Min_cycle;Max_cycle;Signal;HPM_P1;HPM_P2
2021/07/03 00:01:50;;;;;;;10.93;6.43;;;14.90;99.90;;;;;;5116170;28;20035;-68
2021/07/03 00:04:16;;;;;;;8.73;5.75;;;14.80;99.90;;;;;;5115765;28;20043;-68
2021/07/03 00:06:41;;;;;;;8.07;5.60;;;14.80;99.90;;;;;;5115988;28;20036;-68
2021/07/03 00:09:07;;;;;;;7.75;4.20;;;14.80;99.90;;;;;;5115583;28;20040;-67
2021/07/03 00:11:33;;;;;;;10.45;4.38;;;14.70;99.90;;;;;;5115879;28;20036;-68
2021/07/03 00:13:58;;;;;;;4.72;4.28;;;14.70;99.90;;;;;;5115550;28;20067;-67
2021/07/03 00:16:24;;;;;;;6.57;5.40;;;14.70;99.90;;;;;;5115383;28;20460;-67
2021/07/03 00:18:50;;;;;;;5.82;5.20;;;14.60;99.90;;;;;;5115239;28;20036;-67
2021/07/03 00:21:16;;;;;;;7.43;5.78;;;14.60;99.90;;;;;;5115416;28;20377;-68
2021/07/03 00:23:41;;;;;;;8.88;7.78;;;14.60;99.90;;;;;;5115216;28;20075;-68
2021/07/03 00:26:07;;;;;;;8.52;6.65;;;14.60;99.90;;;;;;5115765;28;20050;-68
2021/07/03 00:28:33;;;;;;;6.88;6.18;;;14.60;99.90;;;;;;5114770;27;20051;-68
2021/07/03 00:31:00;;;;;;;5.78;5.15;;;14.60;99.90;;;;;;5115165;28;20043;-67
2021/07/03 00:33:25;;;;;;;5.80;5.22;;;14.50;99.90;;;;;;5115346;28;20031;-67
2021/07/03 00:35:51;;;;;;;6.45;4.85;;;14.50;99.90;;;;;;5115342;28;20035;-67
2021/07/03 00:38:17;;;;;;;4.95;4.45;;;14.50;99.90;;;;;;5115537;28;20040;-67
2021/07/03 00:40:42;;;;;;;5.78;4.90;;;14.50;99.90;;;;;;5114407;28;20407;-67
2021/07/03 00:43:08;;;;;;;6.68;5.15;;;14.50;99.90;;;;;;5114690;28;20036;-68
2021/07/03 00:45:34;;;;;;;5.72;5.22;;;14.40;99.90;;;;;;5114858;28;20114;-67
2021/07/03 00:47:59;;;;;;;7.80;5.43;;;14.40;99.90;;;;;;5114675;27;20036;-68
2021/07/03 00:50:25;;;;;;;5.20;4.70;;;14.40;99.90;;;;;;5113172;28;20032;-67
2021/07/03 00:52:51;;;;;;;5.88;4.20;;;14.40;99.90;;;;;;5115465;28;20039;-68
2021/07/03 00:55:17;;;;;;;5.32;4.53;;;14.40;99.90;;;;;;5115709;28;20371;-67
2021/07/03 00:57:44;;;;;;;8.63;5.32;;;14.40;99.90;;;;;;5114849;28;20184;-68
2021/07/03 01:00:12;;;;;;;7.25;6.00;;;14.40;99.90;;;;;;5114041;27;20043;-68
2021/07/03 01:02:37;;;;;;;11.82;6.70;;;14.40;99.90;;;;;;5114895;28;20089;-67
2021/07/03 01:05:04;;;;;;;9.27;7.93;;;14.40;99.90;;;;;;5114862;28;20417;-67
2021/07/03 01:07:30;;;;;;;12.45;8.75;;;14.40;99.90;;;;;;5113400;28;20122;-67
2021/07/03 01:09:56;;;;;;;13.80;10.00;;;14.30;99.90;;;;;;5113965;28;20061;-67
2021/07/03 01:12:22;;;;;;;10.93;9.65;;;14.30;99.90;;;;;;5114386;28;20164;-67
2021/07/03 01:14:49;;;;;;;12.88;9.30;;;14.30;99.90;;;;;;5114538;28;20036;-67
2021/07/03 01:17:16;;;;;;;15.13;9.77;;;14.30;99.90;;;;;;5114461;28;20085;-67
2021/07/03 01:19:42;;;;;;;12.90;9.43;;;14.20;99.90;;;;;;5113924;28;20078;-67
2021/07/03 01:22:11;;;;;;;10.30;8.15;;;14.20;99.90;;;;;;5114071;28;20475;-67
2021/07/03 01:24:37;;;;;;;9.50;7.22;;;14.30;99.90;;;;;;5114045;28;20115;-67
2021/07/03 01:27:04;;;;;;;11.43;8.20;;;14.20;99.90;;;;;;5114393;27;20067;-67
2021/07/03 01:29:32;;;;;;;14.13;9.43;;;14.30;99.90;;;;;;5113919;28;20063;-67
2021/07/03 01:31:59;;;;;;;17.23;10.48;;;14.20;99.90;;;;;;5113918;28;20038;-67
2021/07/03 01:34:28;;;;;;;13.15;10.75;;;14.20;99.90;;;;;;5114512;28;20470;-67
2021/07/03 01:36:55;;;;;;;12.65;9.23;;;14.20;99.90;;;;;;5114281;28;20032;-67
2021/07/03 01:39:22;;;;;;;12.90;10.00;;;14.20;99.90;;;;;;5113938;28;20039;-67
2021/07/03 01:41:48;;;;;;;12.93;10.00;;;14.20;99.90;;;;;;5114155;28;20047;-68
2021/07/03 01:44:23;;;;;;;15.95;10.68;;;14.20;99.90;;;;;;5114465;28;20503;-67
2021/07/03 01:46:50;;;;;;;13.55;11.05;;;14.20;99.90;;;;;;5113908;28;20449;-67
2021/07/03 01:49:15;;;;;;;16.30;11.90;;;14.10;99.90;;;;;;5113544;28;20486;-67
2021/07/03 01:51:41;;;;;;;23.40;13.65;;;14.10;99.90;;;;;;5113714;28;20078;-67
2021/07/03 01:54:07;;;;;;;16.17;13.18;;;14.00;99.90;;;;;;5113978;28;20032;-67
2021/07/03 01:56:32;;;;;;;15.35;12.77;;;14.00;99.90;;;;;;5118169;28;20065;-67
2021/07/03 01:58:58;;;;;;;19.13;12.93;;;14.00;99.90;;;;;;5117819;28;20494;-67
2021/07/03 02:01:25;;;;;;;16.58;13.02;;;14.00;99.90;;;;;;5117870;28;20519;-67
2021/07/03 02:03:51;;;;;;;21.20;14.27;;;14.00;99.90;;;;;;5117354;28;20097;-67
2021/07/03 02:06:16;;;;;;;15.43;12.85;;;14.00;99.90;;;;;;5116680;28;20085;-67
2021/07/03 02:08:42;;;;;;;18.20;12.65;;;14.00;99.90;;;;;;5117622;28;20035;-67
2021/07/03 02:11:08;;;;;;;20.35;14.25;;;14.00;99.90;;;;;;5118327;27;20476;-68
2021/07/03 02:13:33;;;;;;;20.73;14.35;;;14.00;99.90;;;;;;5116462;28;20433;-67
2021/07/03 02:15:59;;;;;;;17.25;13.13;;;14.00;99.90;;;;;;5118228;28;20067;-67
2021/07/03 02:18:25;;;;;;;18.48;13.88;;;14.00;99.90;;;;;;5117773;28;20506;-67
2021/07/03 02:20:50;;;;;;;18.25;13.73;;;13.90;99.90;;;;;;5117318;27;20384;-67
2021/07/03 02:23:18;;;;;;;23.08;15.50;;;13.90;99.90;;;;;;5117790;27;20070;-67
2021/07/03 02:25:46;;;;;;;22.40;16.50;;;13.90;99.90;;;;;;5117470;28;20066;-67
2021/07/03 02:28:15;;;;;;;22.73;14.75;;;13.90;99.90;;;;;;5117908;28;20031;-67
2021/07/03 02:30:42;;;;;;;22.05;14.70;;;13.90;99.90;;;;;;5117389;28;20047;-67
2021/07/03 02:33:08;;;;;;;17.98;14.13;;;13.90;99.90;;;;;;5117857;28;20042;-67
2021/07/03 02:35:33;;;;;;;15.80;13.23;;;13.90;99.90;;;;;;5116159;28;20371;-67
2021/07/03 02:37:59;;;;;;;15.48;10.38;;;13.80;99.90;;;;;;5117727;28;20122;-67
2021/07/03 02:40:25;;;;;;;12.38;8.38;;;13.80;99.90;;;;;;5116930;28;20039;-67
2021/07/03 02:42:50;;;;;;;10.07;7.40;;;13.80;99.90;;;;;;5117618;28;20032;-67
2021/07/03 02:45:17;;;;;;;12.45;9.18;;;13.80;99.90;;;;;;5117249;28;20051;-67
2021/07/03 02:47:44;;;;;;;16.50;12.95;;;13.80;99.90;;;;;;5117231;28;20035;-67
2021/07/03 02:50:12;;;;;;;14.68;11.52;;;13.70;99.90;;;;;;5116710;28;20032;-67
2021/07/03 02:52:38;;;;;;;14.90;11.50;;;13.70;99.90;;;;;;5117258;28;20428;-67
2021/07/03 02:55:05;;;;;;;14.77;10.27;;;13.70;99.90;;;;;;5116827;28;20130;-67
2021/07/03 02:57:31;;;;;;;11.98;8.07;;;13.70;99.90;;;;;;5116723;28;20102;-67
2021/07/03 02:59:57;;;;;;;10.50;6.22;;;13.60;99.90;;;;;;5116490;28;20072;-67
2021/07/03 03:02:22;;;;;;;10.60;7.03;;;13.60;99.90;;;;;;5117508;28;20036;-67
2021/07/03 03:04:48;;;;;;;8.63;6.18;;;13.60;99.90;;;;;;5117370;28;20036;-67
2021/07/03 03:07:14;;;;;;;9.90;5.32;;;13.60;99.90;;;;;;5116869;28;20092;-67
2021/07/03 03:09:40;;;;;;;7.25;5.03;;;13.40;99.90;;;;;;5116349;28;20083;-67
2021/07/03 03:12:06;;;;;;;6.78;3.90;;;13.40;99.90;;;;;;5116920;28;20043;-67
2021/07/03 03:14:32;;;;;;;5.13;3.85;;;13.40;99.90;;;;;;5116525;28;20042;-67
2021/07/03 03:16:58;;;;;;;7.20;4.28;;;13.30;99.90;;;;;;5117056;27;20039;-67
2021/07/03 03:19:24;;;;;;;6.78;4.65;;;13.30;99.90;;;;;;5116308;28;20040;-67
2021/07/03 03:21:50;;;;;;;6.22;3.75;;;13.30;99.90;;;;;;5116640;28;20399;-67
2021/07/03 03:24:16;;;;;;;5.53;4.18;;;13.20;99.90;;;;;;5116380;28;20035;-67
2021/07/03 03:26:42;;;;;;;7.15;4.82;;;13.10;99.90;;;;;;5116475;28;20043;-67
2021/07/03 03:29:08;;;;;;;6.60;5.82;;;13.10;99.90;;;;;;5116189;27;20084;-67
2021/07/03 03:31:34;;;;;;;9.30;7.53;;;13.10;99.90;;;;;;5116391;28;20062;-67
2021/07/03 03:34:01;;;;;;;8.68;7.78;;;13.10;99.90;;;;;;5115246;28;20475;-67
2021/07/03 03:36:28;;;;;;;11.15;9.75;;;13.00;99.90;;;;;;5116330;28;20079;-67
2021/07/03 03:38:53;;;;;;;10.90;9.73;;;13.00;99.90;;;;;;5115896;28;20062;-67
2021/07/03 03:41:20;;;;;;;10.88;9.68;;;12.90;99.90;;;;;;5116024;27;20530;-67
2021/07/03 03:43:46;;;;;;;9.35;7.70;;;12.90;99.90;;;;;;5115985;28;20036;-67
2021/07/03 03:46:12;;;;;;;10.10;8.25;;;12.90;99.90;;;;;;5116578;28;20384;-67
2021/07/03 03:48:38;;;;;;;11.18;8.93;;;12.90;99.90;;;;;;5116200;28;20042;-67
2021/07/03 03:51:03;;;;;;;10.07;8.88;;;12.90;99.90;;;;;;5116377;28;20058;-67
2021/07/03 03:53:29;;;;;;;11.57;9.23;;;12.90;99.90;;;;;;5115801;28;20058;-67
2021/07/03 03:55:54;;;;;;;10.05;9.05;;;12.90;99.90;;;;;;5115928;28;20479;-67
2021/07/03 03:58:20;;;;;;;11.73;9.20;;;12.90;99.90;;;;;;5115651;28;20495;-67
2021/07/03 04:00:47;;;;;;;10.10;8.77;;;13.00;99.90;;;;;;5114515;28;20043;-67
2021/07/03 04:03:13;;;;;;;9.93;8.82;;;13.00;99.90;;;;;;5115613;28;20032;-67
2021/07/03 04:05:38;;;;;;;11.57;8.75;;;13.00;99.90;;;;;;5115993;28;20039;-67
2021/07/03 04:08:05;;;;;;;10.07;9.07;;;13.00;99.90;;;;;;5115950;28;20047;-67
2021/07/03 04:10:31;;;;;;;12.90;10.02;;;13.00;99.90;;;;;;5115441;28;20092;-67
2021/07/03 04:13:00;;;;;;;11.43;8.55;;;13.00;99.90;;;;;;5115352;27;20043;-67
2021/07/03 04:15:26;;;;;;;9.43;8.43;;;13.00;99.90;;;;;;5114315;28;20054;-67
2021/07/03 04:17:51;;;;;;;9.85;8.05;;;13.10;99.90;;;;;;5115122;28;20040;-67
2021/07/03 04:20:17;;;;;;;8.63;7.10;;;13.10;99.90;;;;;;5115031;28;20391;-67
2021/07/03 04:22:43;;;;;;;8.85;7.60;;;13.20;99.90;;;;;;5115469;28;20044;-67
2021/07/03 04:25:11;;;;;;;7.05;6.35;;;13.20;99.90;;;;;;5115213;28;20062;-67
2021/07/03 04:27:38;;;;;;;6.88;6.18;;;13.20;99.90;;;;;;5115050;28;20043;-67
2021/07/03 04:30:06;;;;;;;6.65;5.95;;;13.30;99.90;;;;;;5114863;28;20112;-67
2021/07/03 04:32:33;;;;;;;5.82;5.25;;;13.30;99.90;;;;;;5115595;28;20134;-67
2021/07/03 04:34:59;;;;;;;6.63;5.25;;;13.30;99.90;;;;;;5114164;28;20114;-67
2021/07/03 04:37:25;;;;;;;6.75;5.78;;;13.40;99.90;;;;;;5115319;27;20513;-67
2021/07/03 04:39:51;;;;;;;6.03;5.43;;;13.40;99.90;;;;;;5114587;28;20111;-67
2021/07/03 04:42:16;;;;;;;6.43;5.57;;;13.50;99.90;;;;;;5114792;28;20044;-67
2021/07/03 04:44:42;;;;;;;7.63;5.82;;;13.50;99.90;;;;;;5114908;28;20036;-67
2021/07/03 04:47:08;;;;;;;7.43;5.72;;;13.60;99.90;;;;;;5114972;28;20040;-67
2021/07/03 04:49:34;;;;;;;6.20;5.60;;;13.70;99.90;;;;;;5114383;28;20042;-67
2021/07/03 04:52:01;;;;;;;6.60;5.72;;;13.90;99.90;;;;;;5113974;28;20041;-67
2021/07/03 04:54:27;;;;;;;5.43;4.65;;;14.10;99.90;;;;;;5114041;28;20040;-67
2021/07/03 04:57:07;;;;;;;6.72;6.05;;;14.30;99.90;;;;;;5114911;28;20061;-67
2021/07/03 04:59:43;;;;;;;5.82;5.25;;;14.60;99.90;;;;;;5114510;28;20040;-67
2021/07/03 05:02:11;;;;;;;6.25;5.65;;;14.80;99.90;;;;;;5114435;28;20039;-67
2021/07/03 05:04:37;;;;;;;8.02;5.60;;;15.10;99.90;;;;;;5113218;28;20046;-67
2021/07/03 05:07:04;;;;;;;9.52;6.60;;;15.50;99.90;;;;;;5114366;28;20122;-67
2021/07/03 05:09:31;;;;;;;8.82;6.38;;;15.70;99.90;;;;;;5114242;28;20044;-67
2021/07/03 05:11:57;;;;;;;8.40;5.40;;;16.00;99.90;;;;;;5114253;28;20043;-68
2021/07/03 05:14:23;;;;;;;6.70;4.97;;;16.30;99.90;;;;;;5114286;28;20533;-67
2021/07/03 05:16:48;;;;;;;7.22;4.97;;;16.60;99.90;;;;;;5114235;28;20040;-68
2021/07/03 05:19:14;;;;;;;7.28;6.57;;;17.00;99.90;;;;;;5113885;28;20483;-68
2021/07/03 05:21:41;;;;;;;7.90;5.50;;;17.20;99.90;;;;;;5114142;28;20112;-68
2021/07/03 05:24:07;;;;;;;7.50;5.15;;;17.40;99.90;;;;;;5114844;28;20522;-68
2021/07/03 05:26:33;;;;;;;5.30;4.80;;;17.80;99.90;;;;;;5114136;28;20046;-68
2021/07/03 05:28:58;;;;;;;8.23;6.18;;;18.10;99.90;;;;;;5113104;28;20047;-68
2021/07/03 05:31:24;;;;;;;7.82;6.03;;;18.40;99.90;;;;;;5114011;28;20075;-68
2021/07/03 05:33:50;;;;;;;7.85;5.47;;;18.60;99.90;;;;;;5114184;28;20430;-68
2021/07/03 05:36:16;;;;;;;7.85;6.38;;;18.80;99.90;;;;;;5114403;28;20035;-68
2021/07/03 05:38:45;;;;;;;8.52;6.32;;;19.00;99.90;;;;;;5113851;28;20493;-68
2021/07/03 05:41:12;;;;;;;9.57;7.00;;;19.20;99.90;;;;;;5114271;28;20043;-68
2021/07/03 05:43:38;;;;;;;7.22;6.13;;;19.50;99.90;;;;;;5113784;28;20098;-68
2021/07/03 05:46:05;;;;;;;7.80;6.53;;;19.70;99.90;;;;;;5112646;28;20150;-68
2021/07/03 05:48:39;;;;;;;8.25;6.45;;;19.80;99.90;;;;;;5113555;28;20437;-68
2021/07/03 05:51:04;;;;;;;11.27;7.53;;;19.80;99.90;;;;;;5114107;28;20538;-68
2021/07/03 05:53:30;;;;;;;11.40;8.13;;;19.90;99.90;;;;;;5114157;28;20066;-68
2021/07/03 05:55:56;;;;;;;9.98;8.13;;;19.90;99.90;;;;;;5114240;28;20082;-68
2021/07/03 05:58:22;;;;;;;10.48;7.93;;;20.00;99.90;;;;;;5114242;28;20437;-68
2021/07/03 06:00:47;;;;;;;14.00;9.85;;;20.20;99.90;;;;;;5113388;28;20039;-68
2021/07/03 06:03:13;;;;;;;13.15;10.50;;;20.30;99.90;;;;;;5114164;28;20047;-68
2021/07/03 06:05:39;;;;;;;27.98;25.23;;;20.60;99.90;;;;;;5113683;28;20036;-68
2021/07/03 06:08:07;;;;;;;23.02;20.58;;;20.70;99.90;;;;;;5113824;28;20490;-68
2021/07/03 06:10:33;;;;;;;33.63;30.13;;;20.40;99.90;;;;;;5113478;28;20118;-68
2021/07/03 06:12:59;;;;;;;32.35;28.77;;;20.40;99.90;;;;;;5113516;28;20392;-69
2021/07/03 06:15:25;;;;;;;22.25;18.70;;;20.50;99.90;;;;;;5114039;28;20043;-69
2021/07/03 06:17:50;;;;;;;12.80;10.32;;;20.50;99.90;;;;;;5113359;28;20499;-69
2021/07/03 06:20:17;;;;;;;12.43;9.20;;;20.10;99.90;;;;;;5113170;28;20035;-69
2021/07/03 06:22:43;;;;;;;11.60;8.40;;;20.20;99.90;;;;;;5113608;28;20043;-69
2021/07/03 06:25:10;;;;;;;11.10;8.27;;;20.50;99.90;;;;;;5113496;28;20040;-69
2021/07/03 06:27:39;;;;;;;11.70;7.88;;;20.60;99.90;;;;;;5113548;28;20036;-69
2021/07/03 06:30:07;;;;;;;10.43;7.03;;;20.70;99.90;;;;;;5113019;28;20036;-69
2021/07/03 06:32:33;;;;;;;9.32;7.15;;;20.80;99.90;;;;;;5113818;28;20040;-69
2021/07/03 06:35:00;;;;;;;13.10;7.50;;;20.80;99.90;;;;;;5112109;28;20043;-69
2021/07/03 06:37:26;;;;;;;10.15;7.10;;;21.00;99.70;;;;;;5113762;28;20114;-69
2021/07/03 06:39:52;;;;;;;10.27;7.15;;;21.20;99.00;;;;;;5112900;28;20123;-69
2021/07/03 06:42:19;;;;;;;12.73;7.20;;;21.40;98.60;;;;;;5116951;28;20421;-69
2021/07/03 06:44:46;;;;;;;10.85;7.70;;;21.50;98.00;;;;;;5117707;27;20391;-69
2021/07/03 06:47:15;;;;;;;8.90;6.95;;;21.50;97.50;;;;;;5117797;28;20051;-69
2021/07/03 06:49:41;;;;;;;10.82;7.25;;;21.80;96.30;;;;;;5116786;27;20040;-69
2021/07/03 06:52:09;;;;;;;12.55;8.27;;;21.80;96.20;;;;;;5117201;28;20439;-69
2021/07/03 06:54:35;;;;;;;17.10;9.23;;;22.00;97.80;;;;;;5115726;28;20066;-69
2021/07/03 06:57:01;;;;;;;10.32;7.82;;;22.10;97.30;;;;;;5117244;27;20518;-69
2021/07/03 06:59:28;;;;;;;12.68;7.75;;;22.10;96.50;;;;;;5116821;28;20076;-69
2021/07/03 07:01:54;;;;;;;8.25;7.00;;;22.10;96.60;;;;;;5116768;28;20118;-69
2021/07/03 07:04:21;;;;;;;13.82;7.18;;;21.90;96.50;;;;;;5116768;28;20032;-69
2021/07/03 07:06:50;;;;;;;9.02;6.63;;;22.10;96.30;;;;;;5116874;27;20039;-66
2021/07/03 07:09:17;;;;;;;10.75;6.20;;;22.30;95.50;;;;;;5116559;28;20044;-66
2021/07/03 07:11:43;;;;;;;8.20;6.00;;;22.50;95.60;;;;;;5117070;28;20396;-68
2021/07/03 07:14:09;;;;;;;7.30;4.97;;;22.50;94.40;;;;;;5117172;28;20035;-68
2021/07/03 07:16:35;;;;;;;7.80;4.40;;;22.50;93.60;;;;;;5116588;28;20046;-68
2021/07/03 07:19:01;;;;;;;8.85;4.93;;;22.30;93.50;;;;;;5116296;28;20100;-68
2021/07/03 07:21:26;;;;;;;10.20;5.45;;;22.20;93.50;;;;;;5116609;28;20032;-68
2021/07/03 07:23:52;;;;;;;7.40;5.15;;;21.90;93.70;;;;;;5116806;28;20507;-68
2021/07/03 07:26:18;;;;;;;6.28;4.32;;;21.50;93.90;;;;;;5098243;28;20071;-68
2021/07/03 07:28:45;;;;;;;8.27;4.93;;;21.40;94.20;;;;;;5116052;28;20063;-68
2021/07/03 07:31:11;;;;;;;8.35;5.05;;;21.40;94.80;;;;;;5116242;28;20114;-68
2021/07/03 07:33:37;;;;;;;9.02;3.83;;;21.40;94.70;;;;;;5115065;28;20135;-67
2021/07/03 07:36:03;;;;;;;7.60;4.05;;;21.50;94.80;;;;;;5116559;28;20043;-69
2021/07/03 07:38:29;;;;;;;8.10;5.22;;;21.80;94.50;;;;;;5115912;28;20031;-68
2021/07/03 07:40:55;;;;;;;8.15;4.30;;;21.80;93.80;;;;;;5116215;28;20088;-68
2021/07/03 07:43:20;;;;;;;8.30;4.63;;;22.00;94.40;;;;;;5115907;28;20093;-68
2021/07/03 07:45:46;;;;;;;12.00;5.10;;;21.90;94.10;;;;;;5115957;28;20040;-69
2021/07/03 07:48:12;;;;;;;8.65;5.53;;;22.10;94.10;;;;;;5115960;28;20039;-68
2021/07/03 07:50:38;;;;;;;11.85;6.55;;;22.20;93.80;;;;;;5115504;28;20451;-69
2021/07/03 07:53:04;;;;;;;13.57;5.55;;;22.50;93.90;;;;;;5115548;28;20472;-68
2021/07/03 07:55:30;;;;;;;9.00;5.38;;;22.80;93.60;;;;;;5116349;28;20093;-68
2021/07/03 07:57:56;;;;;;;10.38;5.22;;;23.30;93.60;;;;;;5115623;27;20403;-68
2021/07/03 08:00:22;;;;;;;16.13;5.68;;;23.60;94.20;;;;;;5114445;28;20039;-68
2021/07/03 08:02:49;;;;;;;9.63;5.55;;;23.70;91.60;;;;;;5115836;28;20472;-69
2021/07/03 08:05:16;;;;;;;12.68;6.00;;;23.80;91.60;;;;;;5115775;28;20363;-69
2021/07/03 08:07:41;;;;;;;8.82;5.20;;;23.50;91.80;;;;;;5116057;28;20063;-69
2021/07/03 08:10:08;;;;;;;11.05;6.15;;;23.60;91.60;;;;;;5115122;28;20074;-68
2021/07/03 08:12:34;;;;;;;12.07;6.47;;;23.40;91.20;;;;;;5115752;28;20062;-68
2021/07/03 08:15:00;;;;;;;9.80;6.38;;;23.00;91.30;;;;;;5116334;28;20475;-68
2021/07/03 08:17:25;;;;;;;9.43;5.20;;;23.10;93.00;;;;;;5115585;28;20115;-68
2021/07/03 08:19:51;;;;;;;10.35;5.90;;;23.60;93.50;;;;;;5115145;28;20047;-68
2021/07/03 08:22:17;;;;;;;9.82;5.60;;;23.90;91.50;;;;;;5115495;28;20562;-68
2021/07/03 08:24:42;;;;;;;15.73;5.90;;;24.00;90.00;;;;;;5115335;28;20487;-69
2021/07/03 08:27:08;;;;;;;10.55;5.80;;;24.10;86.10;;;;;;5115839;28;20066;-69
2021/07/03 08:29:34;;;;;;;9.38;5.60;;;24.10;86.50;;;;;;5114745;28;20395;-68
2021/07/03 08:31:59;;;;;;;10.07;5.47;;;24.10;89.30;;;;;;5114989;28;20032;-69
2021/07/03 08:34:25;;;;;;;9.60;6.50;;;23.90;88.00;;;;;;5115105;28;20429;-69
2021/07/03 08:36:51;;;;;;;9.10;5.35;;;23.80;88.20;;;;;;5115090;28;20047;-69
2021/07/03 08:39:17;;;;;;;11.27;6.32;;;23.70;88.10;;;;;;5114976;28;20043;-69
2021/07/03 08:41:43;;;;;;;13.52;6.38;;;23.40;90.00;;;;;;5114793;28;20047;-68
2021/07/03 08:44:12;;;;;;;10.52;5.75;;;23.40;89.70;;;;;;5115526;28;20047;-69
2021/07/03 08:46:38;;;;;;;8.82;5.25;;;23.10;89.50;;;;;;5114947;28;20051;-69
2021/07/03 08:49:04;;;;;;;14.75;6.85;;;23.20;89.50;;;;;;5115057;28;20407;-68
2021/07/03 08:51:30;;;;;;;9.98;5.78;;;23.00;90.40;;;;;;5113473;28;20036;-68
2021/07/03 08:53:56;;;;;;;11.30;6.82;;;22.80;90.50;;;;;;5114929;28;20097;-68
2021/07/03 08:56:21;;;;;;;10.70;7.82;;;22.80;90.80;;;;;;5115048;27;20100;-68
2021/07/03 08:58:47;;;;;;;10.25;6.63;;;22.50;90.50;;;;;;5114318;28;20043;-68
2021/07/03 09:01:13;;;;;;;11.57;6.63;;;22.80;91.00;;;;;;5114475;28;20039;-67
2021/07/03 09:03:49;;;;;;;10.52;6.70;;;23.10;92.10;;;;;;5114572;28;20043;-68
2021/07/03 09:06:15;;;;;;;14.88;6.90;;;23.30;91.80;;;;;;5114805;28;20035;-67
2021/07/03 09:08:52;;;;;;;13.40;6.50;;;23.70;91.50;;;;;;5114332;28;20035;-68
2021/07/03 09:11:18;;;;;;;8.90;5.97;;;24.10;91.30;;;;;;5114580;28;20036;-68
2021/07/03 09:13:44;;;;;;;12.10;7.90;;;24.20;90.80;;;;;;5113119;28;20592;-68
2021/07/03 09:16:10;;;;;;;14.48;8.15;;;24.30;89.50;;;;;;5114442;28;20084;-68
2021/07/03 09:18:36;;;;;;;13.07;7.50;;;24.30;90.40;;;;;;5114287;28;20039;-68
2021/07/03 09:21:04;;;;;;;11.50;8.20;;;24.20;88.60;;;;;;5114106;28;20046;-68
2021/07/03 09:23:37;;;;;;;13.75;8.23;;;24.30;87.30;;;;;;5113985;28;20483;-68
2021/07/03 09:26:11;;;;;;;11.15;8.10;;;24.50;86.20;;;;;;5114295;28;20040;-68
2021/07/03 09:28:42;;;;;;;12.10;6.95;;;24.50;84.70;;;;;;5113816;28;20097;-68
2021/07/03 09:31:10;;;;;;;12.43;6.88;;;24.60;83.40;;;;;;5113927;28;20050;-68
2021/07/03 09:33:40;;;;;;;10.43;6.35;;;24.90;84.70;;;;;;5114042;28;20036;-68
2021/07/03 09:36:08;;;;;;;10.25;7.60;;;25.10;84.30;;;;;;5114248;28;20077;-68
2021/07/03 09:38:41;;;;;;;9.35;6.20;;;25.10;86.20;;;;;;5113286;28;20035;-67
2021/07/03 09:41:07;;;;;;;7.55;6.40;;;25.20;85.60;;;;;;5112917;28;20124;-68
2021/07/03 09:43:33;;;;;;;12.15;7.55;;;25.50;86.10;;;;;;5114092;28;20152;-68
2021/07/03 09:45:59;;;;;;;11.07;7.95;;;25.40;83.80;;;;;;5113642;28;20500;-67
2021/07/03 09:48:25;;;;;;;13.75;7.18;;;25.10;85.10;;;;;;5114242;28;20377;-68
2021/07/03 09:50:51;;;;;;;8.95;6.97;;;24.70;88.40;;;;;;5113882;28;20047;-68
2021/07/03 09:53:17;;;;;;;10.50;6.93;;;24.60;88.70;;;;;;5114005;28;20062;-68
2021/07/03 09:55:42;;;;;;;9.52;7.28;;;24.80;88.60;;;;;;5113917;28;20067;-68
2021/07/03 09:58:09;;;;;;;11.52;7.75;;;25.00;88.40;;;;;;5114133;28;20040;-69
2021/07/03 10:00:37;;;;;;;11.07;8.00;;;24.80;84.40;;;;;;5113633;28;20039;-69
2021/07/03 10:03:07;;;;;;;11.45;7.97;;;24.60;81.80;;;;;;5114467;28;20040;-68
2021/07/03 10:05:39;;;;;;;10.45;6.45;;;24.30;82.80;;;;;;5113728;28;20040;-68
2021/07/03 10:08:08;;;;;;;10.13;5.30;;;24.40;81.10;;;;;;5114104;28;20043;-70
2021/07/03 10:10:37;;;;;;;14.68;8.30;;;24.30;81.20;;;;;;5113314;28;20181;-71
2021/07/03 10:13:10;;;;;;;11.98;7.78;;;24.10;85.30;;;;;;5113587;28;20399;-71
2021/07/03 10:15:36;;;;;;;12.23;8.00;;;24.10;86.60;;;;;;5113181;28;20044;-71
2021/07/03 10:18:15;;;;;;;11.02;7.75;;;24.40;87.20;;;;;;5118180;28;20173;-71
2021/07/03 10:20:43;;;;;;;10.90;6.35;;;24.30;84.90;;;;;;5117366;28;20051;-71
2021/07/03 10:23:10;;;;;;;11.63;8.00;;;24.30;85.30;;;;;;5117903;28;20044;-71
2021/07/03 10:25:44;;;;;;;13.10;8.57;;;24.40;88.70;;;;;;5117612;28;20032;-71
2021/07/03 10:28:12;;;;;;;12.70;7.40;;;24.40;90.40;;;;;;5118258;28;20035;-71
2021/07/03 10:30:40;;;;;;;12.10;7.47;;;24.60;90.60;;;;;;5117117;28;20475;-71
2021/07/03 10:33:26;;;;;;;10.23;7.60;;;24.60;88.90;;;;;;5117766;28;20127;-71
2021/07/03 10:35:54;;;;;;;9.77;6.55;;;24.60;86.30;;;;;;5117089;27;20420;-71
2021/07/03 10:38:28;;;;;;;9.07;7.50;;;24.60;84.20;;;;;;5117905;28;20048;-71
2021/07/03 10:41:14;;;;;;;11.27;6.85;;;24.40;82.50;;;;;;5117449;27;20054;-71
2021/07/03 10:43:44;;;;;;;9.05;6.25;;;24.40;81.00;;;;;;5117575;28;20063;-71
2021/07/03 10:46:09;;;;;;;7.30;5.40;;;24.10;81.50;;;;;;5117060;28;20040;-71
2021/07/03 10:48:35;;;;;;;10.00;5.47;;;24.10;79.60;;;;;;5117331;28;20032;-71
2021/07/03 10:51:12;;;;;;;8.32;6.85;;;23.90;80.00;;;;;;5117060;28;20040;-71
2021/07/03 10:53:38;;;;;;;9.52;6.35;;;23.70;83.50;;;;;;5116911;28;20040;-71
2021/07/03 10:56:10;;;;;;;13.57;6.10;;;23.80;85.40;;;;;;5117183;28;20065;-71
2021/07/03 10:58:38;;;;;;;8.13;5.22;;;23.80;85.10;;;;;;5117043;28;20445;-72
2021/07/03 11:01:11;;;;;;;7.47;5.45;;;24.60;83.10;;;;;;5116827;28;20089;-72
2021/07/03 11:03:49;;;;;;;8.88;5.88;;;25.00;82.20;;;;;;5116838;28;20479;-72
2021/07/03 11:06:18;;;;;;;11.10;6.97;;;25.20;81.70;;;;;;5117075;28;20434;-72
2021/07/03 11:08:44;;;;;;;8.00;5.50;;;25.30;79.10;;;;;;5116370;28;20042;-73
2021/07/03 11:11:12;;;;;;;9.27;5.13;;;25.10;77.30;;;;;;5116642;28;20071;-73
2021/07/03 11:13:38;;;;;;;6.93;4.63;;;25.30;79.10;;;;;;5117224;28;20093;-72
2021/07/03 11:16:08;;;;;;;4.80;3.70;;;25.20;77.00;;;;;;5117009;28;20112;-73
2021/07/03 11:18:41;;;;;;;7.13;3.78;;;25.10;74.60;;;;;;5116824;28;20031;-73
2021/07/03 11:21:10;;;;;;;7.43;4.20;;;25.20;74.40;;;;;;5116379;28;20046;-72
2021/07/03 11:23:36;;;;;;;5.82;3.88;;;25.00;75.10;;;;;;5116943;28;20077;-72
2021/07/03 11:26:13;;;;;;;6.32;4.70;;;25.00;76.50;;;;;;5116957;28;20471;-72
2021/07/03 11:28:40;;;;;;;4.82;4.05;;;25.10;76.80;;;;;;5115215;28;20039;-72
2021/07/03 11:31:06;;;;;;;5.53;4.93;;;25.20;75.90;;;;;;5116327;28;20031;-72
2021/07/03 11:33:35;;;;;;;11.25;6.22;;;25.10;76.30;;;;;;5116856;28;20035;-72
2021/07/03 11:36:03;;;;;;;7.22;5.20;;;25.10;77.20;;;;;;5116488;28;20039;-72
2021/07/03 11:38:30;;;;;;;6.88;4.63;;;25.20;77.70;;;;;;5116436;28;20040;-73
2021/07/03 11:41:00;;;;;;;9.00;5.25;;;25.20;80.60;;;;;;5116033;28;20484;-72
2021/07/03 11:43:26;;;;;;;6.60;4.68;;;25.00;79.00;;;;;;5116624;28;20537;-72
2021/07/03 11:45:53;;;;;;;10.48;5.00;;;24.80;77.40;;;;;;5116076;28;20479;-72
2021/07/03 11:48:22;;;;;;;8.30;4.57;;;24.90;76.90;;;;;;5116037;28;20541;-72
2021/07/03 11:50:53;;;;;;;6.95;4.40;;;25.00;79.70;;;;;;5115557;28;20032;-72
2021/07/03 11:53:21;;;;;;;8.48;5.70;;;25.10;80.00;;;;;;5116595;28;20533;-72
2021/07/03 11:55:50;;;;;;;9.60;4.82;;;25.00;85.10;;;;;;5115846;28;20040;-72
2021/07/03 11:58:30;;;;;;;5.68;4.65;;;25.00;85.70;;;;;;5115866;28;20468;-72
2021/07/03 12:00:57;;;;;;;7.72;3.88;;;25.20;82.20;;;;;;5115693;28;20062;-72
2021/07/03 12:03:44;;;;;;;6.07;4.55;;;25.20;82.90;;;;;;5116554;28;20039;-71
2021/07/03 12:06:16;;;;;;;6.15;4.63;;;25.10;78.60;;;;;;5114190;28;20043;-71
2021/07/03 12:08:47;;;;;;;6.10;4.50;;;24.70;79.90;;;;;;5114911;28;20047;-71
2021/07/03 12:11:15;;;;;;;7.00;4.45;;;24.60;80.50;;;;;;5115709;28;20498;-71
2021/07/03 12:13:53;;;;;;;6.85;4.38;;;24.60;79.80;;;;;;5115373;28;20039;-71
2021/07/03 12:16:20;;;;;;;5.35;3.53;;;24.70;80.50;;;;;;5115977;28;20036;-71
2021/07/03 12:18:52;;;;;;;6.22;3.90;;;24.70;77.50;;;;;;5115556;28;20043;-71
2021/07/03 12:21:19;;;;;;;6.93;4.50;;;24.40;74.80;;;;;;5115321;28;20494;-71
2021/07/03 12:23:48;;;;;;;6.07;3.80;;;24.50;76.30;;;;;;5115835;28;20039;-71
2021/07/03 12:26:18;;;;;;;5.07;3.25;;;24.20;74.60;;;;;;5115543;27;20067;-71
2021/07/03 12:28:56;;;;;;;6.07;3.75;;;24.30;76.90;;;;;;5114948;28;20475;-71
2021/07/03 12:31:33;;;;;;;4.70;4.07;;;24.30;82.50;;;;;;5115234;28;20059;-71
2021/07/03 12:34:12;;;;;;;4.40;3.35;;;24.40;84.70;;;;;;5115297;28;20038;-71
2021/07/03 12:36:44;;;;;;;4.90;4.05;;;24.40;83.30;;;;;;5114866;28;20067;-71
2021/07/03 12:39:15;;;;;;;5.57;3.90;;;24.30;86.90;;;;;;5114321;28;20043;-71
2021/07/03 12:41:44;;;;;;;4.40;3.75;;;24.40;85.80;;;;;;5114920;28;20040;-71